sensor_id;sensor_type;location;lat;lon;timestamp;pressure;altitude;pressure_sealevel;temperature;humidity
52032;BME280;38044;45.148;39.604;2023-03-03T00:01:21;101648.06;;;-0.96;71.50
52032;BME280;38044;45.148;39.604;2023-03-03T00:03:50;101648.75;;;-0.87;71.08
52032;BME280;38044;45.148;39.604;2023-03-03T00:06:15;101664.28;;;-0.78;71.02
52032;BME280;38044;45.148;39.604;2023-03-03T00:08:42;101621.47;;;-0.95;70.82
52032;BME280;38044;45.148;39.604;2023-03-03T00:11:08;101675.09;;;-0.51;71.27
52032;BME280;38044;45.148;39.604;2023-03-03T00:13:46;101661.13;;;-0.45;71.56
52032;BME280;38044;45.148;39.604;2023-03-03T00:16:14;101664.16;;;-0.48;71.05
52032;BME280;38044;45.148;39.604;2023-03-03T00:18:42;101650.94;;;-0.70;71.02
52032;BME280;38044;45.148;39.604;2023-03-03T00:21:29;101625.94;;;-0.74;71.78
52032;BME280;38044;45.148;39.604;2023-03-03T00:24:19;101652.31;;;-0.52;72.17
52032;BME280;38044;45.148;39.604;2023-03-03T00:26:55;101559.53;;;-1.20;72.42
52032;BME280;38044;45.148;39.604;2023-03-03T00:29:44;101655.66;;;-0.43;72.44
52032;BME280;38044;45.148;39.604;2023-03-03T00:34:40;101519.38;;;-1.16;72.14
52032;BME280;38044;45.148;39.604;2023-03-03T00:37:33;101659.56;;;-0.11;72.25
52032;BME280;38044;45.148;39.604;2023-03-03T00:40:25;101532.47;;;-0.79;71.78
52032;BME280;38044;45.148;39.604;2023-03-03T00:42:57;101652.38;;;-0.17;71.79
52032;BME280;38044;45.148;39.604;2023-03-03T00:47:53;101660.94;;;-0.43;71.64
52032;BME280;38044;45.148;39.604;2023-03-03T00:50:40;101567.38;;;-1.05;72.18
52032;BME280;38044;45.148;39.604;2023-03-03T00:53:13;101597.28;;;-0.98;72.73
52032;BME280;38044;45.148;39.604;2023-03-03T00:55:41;101470.59;;;-2.06;73.06
52032;BME280;38044;45.148;39.604;2023-03-03T00:58:08;101636.41;;;-1.23;73.68
52032;BME280;38044;45.148;39.604;2023-03-03T01:00:35;101550.84;;;-1.72;73.90
52032;BME280;38044;45.148;39.604;2023-03-03T01:03:04;101634.13;;;-1.11;74.08
52032;BME280;38044;45.148;39.604;2023-03-03T01:05:30;101631.81;;;-1.15;73.98
52032;BME280;38044;45.148;39.604;2023-03-03T01:07:56;101635.81;;;-1.04;73.31
52032;BME280;38044;45.148;39.604;2023-03-03T01:10:23;101660.63;;;-0.98;73.41
52032;BME280;38044;45.148;39.604;2023-03-03T01:12:49;101640.91;;;-1.02;73.53
52032;BME280;38044;45.148;39.604;2023-03-03T01:15:15;101647.81;;;-1.01;73.65
52032;BME280;38044;45.148;39.604;2023-03-03T01:17:41;101498.38;;;-1.88;73.86
52032;BME280;38044;45.148;39.604;2023-03-03T01:20:09;101612.75;;;-1.17;73.90
52032;BME280;38044;45.148;39.604;2023-03-03T01:22:35;101547.34;;;-1.58;73.98
52032;BME280;38044;45.148;39.604;2023-03-03T01:25:01;101454.59;;;-2.04;74.13
52032;BME280;38044;45.148;39.604;2023-03-03T01:27:30;101629.97;;;-0.99;73.88
52032;BME280;38044;45.148;39.604;2023-03-03T01:29:57;101425.28;;;-2.16;73.43
52032;BME280;38044;45.148;39.604;2023-03-03T01:32:24;101598.97;;;-1.12;74.09
52032;BME280;38044;45.148;39.604;2023-03-03T01:34:50;101629.22;;;-0.93;74.26
52032;BME280;38044;45.148;39.604;2023-03-03T01:37:16;101647.56;;;-0.85;74.13
52032;BME280;38044;45.148;39.604;2023-03-03T01:39:41;101614.81;;;-1.12;73.91
52032;BME280;38044;45.148;39.604;2023-03-03T01:42:07;101624.91;;;-1.16;74.30
52032;BME280;38044;45.148;39.604;2023-03-03T01:44:33;101662.84;;;-1.02;74.97
52032;BME280;38044;45.148;39.604;2023-03-03T01:47:14;101649.56;;;-0.87;74.91
52032;BME280;38044;45.148;39.604;2023-03-03T01:55:00;101634.25;;;-0.77;74.26
52032;BME280;38044;45.148;39.604;2023-03-03T01:57:31;101640.78;;;-0.73;74.06
52032;BME280;38044;45.148;39.604;2023-03-03T01:59:59;101517.00;;;-1.53;74.23
52032;BME280;38044;45.148;39.604;2023-03-03T02:02:27;101635.50;;;-0.73;74.15
52032;BME280;38044;45.148;39.604;2023-03-03T02:04:54;101661.50;;;-0.70;74.40
52032;BME280;38044;45.148;39.604;2023-03-03T02:07:22;101582.50;;;-0.93;74.11
52032;BME280;38044;45.148;39.604;2023-03-03T02:10:00;101631.56;;;-0.55;74.04
52032;BME280;38044;45.148;39.604;2023-03-03T02:12:41;101650.56;;;-0.66;74.39
52032;BME280;38044;45.148;39.604;2023-03-03T02:17:53;101603.38;;;-0.98;74.80
52032;BME280;38044;45.148;39.604;2023-03-03T02:20:43;101594.00;;;-1.00;75.24
52032;BME280;38044;45.148;39.604;2023-03-03T02:28:34;101477.69;;;-2.21;75.35
52032;BME280;38044;45.148;39.604;2023-03-03T02:31:01;101563.78;;;-1.77;76.15
52032;BME280;38044;45.148;39.604;2023-03-03T02:33:32;101600.84;;;-1.64;76.02
52032;BME280;38044;45.148;39.604;2023-03-03T02:36:00;101607.56;;;-1.61;76.47
52032;BME280;38044;45.148;39.604;2023-03-03T02:44:21;101600.34;;;-1.74;76.89
52032;BME280;38044;45.148;39.604;2023-03-03T02:46:49;101609.22;;;-1.75;76.85
52032;BME280;38044;45.148;39.604;2023-03-03T02:49:18;101619.75;;;-1.75;76.99
52032;BME280;38044;45.148;39.604;2023-03-03T02:51:45;101540.31;;;-2.23;77.26
52032;BME280;38044;45.148;39.604;2023-03-03T02:54:12;101623.03;;;-1.73;77.35
52032;BME280;38044;45.148;39.604;2023-03-03T02:56:39;101481.75;;;-2.55;77.12
52032;BME280;38044;45.148;39.604;2023-03-03T02:59:05;101599.50;;;-1.74;77.13
52032;BME280;38044;45.148;39.604;2023-03-03T03:01:32;101590.53;;;-1.80;77.07
52032;BME280;38044;45.148;39.604;2023-03-03T03:04:22;101600.41;;;-1.67;77.17
52032;BME280;38044;45.148;39.604;2023-03-03T03:06:48;101444.41;;;-2.88;76.45
52032;BME280;38044;45.148;39.604;2023-03-03T03:09:17;101561.09;;;-2.13;77.18
52032;BME280;38044;45.148;39.604;2023-03-03T03:11:43;101517.31;;;-2.29;76.67
52032;BME280;38044;45.148;39.604;2023-03-03T03:14:10;101582.41;;;-1.78;76.55
52032;BME280;38044;45.148;39.604;2023-03-03T03:16:36;101567.94;;;-1.68;76.54
52032;BME280;38044;45.148;39.604;2023-03-03T03:19:03;101548.19;;;-1.57;76.19
52032;BME280;38044;45.148;39.604;2023-03-03T03:21:29;101581.47;;;-1.20;75.61
52032;BME280;38044;45.148;39.604;2023-03-03T03:23:55;101582.63;;;-1.01;74.99
52032;BME280;38044;45.148;39.604;2023-03-03T03:26:21;101568.69;;;-0.95;74.39
52032;BME280;38044;45.148;39.604;2023-03-03T03:28:48;101376.63;;;-1.98;74.15
52032;BME280;38044;45.148;39.604;2023-03-03T03:31:15;101391.56;;;-1.84;73.76
52032;BME280;38044;45.148;39.604;2023-03-03T03:33:41;101442.63;;;-1.64;73.92
52032;BME280;38044;45.148;39.604;2023-03-03T03:36:08;101561.38;;;-0.71;74.16
52032;BME280;38044;45.148;39.604;2023-03-03T03:38:34;101570.19;;;-0.57;73.63
52032;BME280;38044;45.148;39.604;2023-03-03T03:41:01;101382.25;;;-1.59;73.34
52032;BME280;38044;45.148;39.604;2023-03-03T03:43:27;101582.97;;;-0.33;72.84
52032;BME280;38044;45.148;39.604;2023-03-03T03:45:53;101539.38;;;-0.50;72.48
52032;BME280;38044;45.148;39.604;2023-03-03T03:48:19;101508.78;;;-0.66;72.16
52032;BME280;38044;45.148;39.604;2023-03-03T03:50:49;101561.84;;;-0.33;72.20
52032;BME280;38044;45.148;39.604;2023-03-03T03:53:16;101406.41;;;-1.33;72.46
52032;BME280;38044;45.148;39.604;2023-03-03T03:55:43;101555.06;;;-0.42;72.36
52032;BME280;38044;45.148;39.604;2023-03-03T03:58:12;101528.13;;;-0.59;72.87
52032;BME280;38044;45.148;39.604;2023-03-03T04:00:40;101434.31;;;-1.18;73.17
52032;BME280;38044;45.148;39.604;2023-03-03T04:03:07;101528.19;;;-0.52;72.96
52032;BME280;38044;45.148;39.604;2023-03-03T04:05:32;101506.88;;;-0.51;72.77
52032;BME280;38044;45.148;39.604;2023-03-03T04:07:58;101572.41;;;-0.33;72.94
52032;BME280;38044;45.148;39.604;2023-03-03T04:10:24;101371.44;;;-1.42;72.93
52032;BME280;38044;45.148;39.604;2023-03-03T04:12:50;101381.19;;;-1.43;72.95
52032;BME280;38044;45.148;39.604;2023-03-03T04:15:16;101391.78;;;-1.36;73.09
52032;BME280;38044;45.148;39.604;2023-03-03T04:17:42;101391.63;;;-1.28;72.93
52032;BME280;38044;45.148;39.604;2023-03-03T04:20:11;101548.47;;;-0.25;72.66
52032;BME280;38044;45.148;39.604;2023-03-03T04:22:37;101563.06;;;-0.29;72.90
52032;BME280;38044;45.148;39.604;2023-03-03T04:25:04;101392.00;;;-1.31;72.77
52032;BME280;38044;45.148;39.604;2023-03-03T04:27:34;101549.75;;;-0.14;72.92
52032;BME280;38044;45.148;39.604;2023-03-03T04:30:01;101400.97;;;-0.97;72.54
52032;BME280;38044;45.148;39.604;2023-03-03T04:32:27;101551.94;;;-0.17;72.29
52032;BME280;38044;45.148;39.604;2023-03-03T04:34:53;101546.00;;;0.09;72.57
52032;BME280;38044;45.148;39.604;2023-03-03T04:37:19;101386.06;;;-0.77;71.77
52032;BME280;38044;45.148;39.604;2023-03-03T04:39:45;101519.34;;;0.10;71.73
52032;BME280;38044;45.148;39.604;2023-03-03T04:42:11;101369.81;;;-0.74;71.56
52032;BME280;38044;45.148;39.604;2023-03-03T04:44:37;101438.06;;;-0.29;70.91
52032;BME280;38044;45.148;39.604;2023-03-03T04:47:03;101513.31;;;0.23;70.92
52032;BME280;38044;45.148;39.604;2023-03-03T04:49:31;101553.06;;;0.56;70.94
52032;BME280;38044;45.148;39.604;2023-03-03T04:51:57;101525.56;;;0.51;70.39
52032;BME280;38044;45.148;39.604;2023-03-03T04:54:23;101509.06;;;0.49;70.57
52032;BME280;38044;45.148;39.604;2023-03-03T04:56:49;101543.31;;;0.70;70.44
52032;BME280;38044;45.148;39.604;2023-03-03T04:59:15;101509.50;;;0.52;70.50
52032;BME280;38044;45.148;39.604;2023-03-03T05:01:40;101459.59;;;0.36;70.36
52032;BME280;38044;45.148;39.604;2023-03-03T05:04:06;101506.47;;;0.75;70.09
52032;BME280;38044;45.148;39.604;2023-03-03T05:06:32;101517.88;;;0.82;69.95
52032;BME280;38044;45.148;39.604;2023-03-03T05:08:58;101516.66;;;0.85;69.97
52032;BME280;38044;45.148;39.604;2023-03-03T05:11:24;101514.63;;;0.94;70.21
52032;BME280;38044;45.148;39.604;2023-03-03T05:13:50;101314.09;;;-0.31;69.83
52032;BME280;38044;45.148;39.604;2023-03-03T05:16:16;101491.63;;;0.81;69.93
52032;BME280;38044;45.148;39.604;2023-03-03T05:18:42;101552.94;;;1.24;69.92
52032;BME280;38044;45.148;39.604;2023-03-03T05:21:08;101533.78;;;1.29;69.59
52032;BME280;38044;45.148;39.604;2023-03-03T05:23:34;101492.22;;;1.09;69.67
52032;BME280;38044;45.148;39.604;2023-03-03T05:25:59;101502.38;;;1.26;69.54
52032;BME280;38044;45.148;39.604;2023-03-03T05:28:25;101461.47;;;1.02;69.65
52032;BME280;38044;45.148;39.604;2023-03-03T05:30:51;101541.88;;;1.61;69.54
52032;BME280;38044;45.148;39.604;2023-03-03T05:33:17;101538.19;;;1.75;69.42
52032;BME280;38044;45.148;39.604;2023-03-03T05:35:43;101358.66;;;0.79;68.86
52032;BME280;38044;45.148;39.604;2023-03-03T05:38:09;101503.06;;;1.86;68.46
52032;BME280;38044;45.148;39.604;2023-03-03T05:40:36;101531.09;;;2.20;68.13
52032;BME280;38044;45.148;39.604;2023-03-03T05:43:02;101518.03;;;2.19;68.16
52032;BME280;38044;45.148;39.604;2023-03-03T05:45:28;101507.78;;;2.29;67.61
52032;BME280;38044;45.148;39.604;2023-03-03T05:47:54;101494.91;;;2.26;67.73
52032;BME280;38044;45.148;39.604;2023-03-03T05:50:21;101533.13;;;2.57;68.03
52032;BME280;38044;45.148;39.604;2023-03-03T05:52:51;101492.91;;;2.53;67.12
52032;BME280;38044;45.148;39.604;2023-03-03T05:55:17;101405.22;;;2.41;66.85
52032;BME280;38044;45.148;39.604;2023-03-03T05:57:43;101520.94;;;3.68;65.42
52032;BME280;38044;45.148;39.604;2023-03-03T06:00:11;101527.66;;;3.89;64.55
52032;BME280;38044;45.148;39.604;2023-03-03T06:02:37;101518.38;;;3.98;64.36
52032;BME280;38044;45.148;39.604;2023-03-03T06:05:03;101517.06;;;4.19;63.79
52032;BME280;38044;45.148;39.604;2023-03-03T06:07:29;101483.13;;;4.14;63.41
52032;BME280;38044;45.148;39.604;2023-03-03T06:09:55;101489.50;;;4.13;63.21
52032;BME280;38044;45.148;39.604;2023-03-03T06:12:21;101507.22;;;4.19;63.69
52032;BME280;38044;45.148;39.604;2023-03-03T06:14:47;101493.78;;;4.14;63.20
52032;BME280;38044;45.148;39.604;2023-03-03T06:17:12;101480.97;;;4.23;62.67
52032;BME280;38044;45.148;39.604;2023-03-03T06:19:38;101464.66;;;4.19;62.17
52032;BME280;38044;45.148;39.604;2023-03-03T06:22:06;101513.72;;;4.54;62.27
52032;BME280;38044;45.148;39.604;2023-03-03T06:24:33;101509.47;;;4.64;62.22
52032;BME280;38044;45.148;39.604;2023-03-03T06:26:59;101358.22;;;3.89;61.31
52032;BME280;38044;45.148;39.604;2023-03-03T06:29:26;101507.47;;;5.13;60.82
52032;BME280;38044;45.148;39.604;2023-03-03T06:31:52;101370.06;;;4.47;59.13
52032;BME280;38044;45.148;39.604;2023-03-03T06:34:18;101506.97;;;5.40;59.06
52032;BME280;38044;45.148;39.604;2023-03-03T06:36:44;101377.00;;;4.71;58.96
52032;BME280;38044;45.148;39.604;2023-03-03T06:39:10;101496.19;;;5.58;58.06
52032;BME280;38044;45.148;39.604;2023-03-03T06:41:36;101451.56;;;5.42;58.19
52032;BME280;38044;45.148;39.604;2023-03-03T06:44:02;101324.91;;;4.76;57.58
52032;BME280;38044;45.148;39.604;2023-03-03T06:46:28;101486.06;;;5.84;57.59
52032;BME280;38044;45.148;39.604;2023-03-03T06:48:53;101484.53;;;5.88;56.67
52032;BME280;38044;45.148;39.604;2023-03-03T06:51:26;101371.16;;;5.22;56.77
52032;BME280;38044;45.148;39.604;2023-03-03T06:53:56;101358.66;;;5.10;57.33
52032;BME280;38044;45.148;39.604;2023-03-03T06:56:26;101442.69;;;5.77;57.28
52032;BME280;38044;45.148;39.604;2023-03-03T06:58:55;101451.44;;;5.89;56.56
52032;BME280;38044;45.148;39.604;2023-03-03T07:01:21;101410.38;;;5.90;56.42
52032;BME280;38044;45.148;39.604;2023-03-03T07:03:47;101455.94;;;6.29;55.86
52032;BME280;38044;45.148;39.604;2023-03-03T07:06:22;101430.63;;;6.31;55.70
52032;BME280;38044;45.148;39.604;2023-03-03T07:08:49;101320.81;;;5.65;54.74
52032;BME280;38044;45.148;39.604;2023-03-03T07:11:19;101311.91;;;5.60;53.29
52032;BME280;38044;45.148;39.604;2023-03-03T07:13:50;101423.91;;;6.29;53.31
52032;BME280;38044;45.148;39.604;2023-03-03T07:16:18;101422.19;;;6.23;53.52
52032;BME280;38044;45.148;39.604;2023-03-03T07:18:58;101451.44;;;6.46;53.94
52032;BME280;38044;45.148;39.604;2023-03-03T07:21:34;101423.59;;;6.25;53.83
52032;BME280;38044;45.148;39.604;2023-03-03T07:26:39;101442.53;;;6.41;54.64
52032;BME280;38044;45.148;39.604;2023-03-03T07:31:38;101403.63;;;6.62;54.36
52032;BME280;38044;45.148;39.604;2023-03-03T07:34:30;101388.84;;;6.93;53.92
52032;BME280;38044;45.148;39.604;2023-03-03T07:37:08;101277.84;;;6.29;53.24
52032;BME280;38044;45.148;39.604;2023-03-03T07:39:37;101428.06;;;7.26;53.08
52032;BME280;38044;45.148;39.604;2023-03-03T07:44:56;101376.31;;;7.37;53.55
52032;BME280;38044;45.148;39.604;2023-03-03T07:47:30;101406.38;;;7.94;52.81
52032;BME280;38044;45.148;39.604;2023-03-03T07:50:06;101408.69;;;8.12;52.66
52032;BME280;38044;45.148;39.604;2023-03-03T07:52:39;101419.59;;;8.32;51.85
52032;BME280;38044;45.148;39.604;2023-03-03T07:55:34;101302.28;;;7.70;51.78
52032;BME280;38044;45.148;39.604;2023-03-03T08:03:11;101400.72;;;8.49;51.70
52032;BME280;38044;45.148;39.604;2023-03-03T08:05:43;101374.25;;;8.53;51.33
52032;BME280;38044;45.148;39.604;2023-03-03T08:08:34;101372.28;;;8.80;51.19
52032;BME280;38044;45.148;39.604;2023-03-03T08:11:03;101252.19;;;7.98;51.18
52032;BME280;38044;45.148;39.604;2023-03-03T08:16:01;101392.34;;;9.20;50.61
52032;BME280;38044;45.148;39.604;2023-03-03T08:18:35;101376.91;;;9.48;50.13
52032;BME280;38044;45.148;39.604;2023-03-03T08:21:27;101234.44;;;8.71;49.67
52032;BME280;38044;45.148;39.604;2023-03-03T08:23:52;101370.50;;;9.69;50.05
52032;BME280;38044;45.148;39.604;2023-03-03T08:26:20;101321.91;;;9.61;49.86
52032;BME280;38044;45.148;39.604;2023-03-03T08:28:46;101359.53;;;9.91;49.21
52032;BME280;38044;45.148;39.604;2023-03-03T08:31:12;101362.50;;;10.00;49.00
52032;BME280;38044;45.148;39.604;2023-03-03T08:33:38;101308.25;;;9.83;49.00
52032;BME280;38044;45.148;39.604;2023-03-03T08:36:06;101370.31;;;10.22;49.04
52032;BME280;38044;45.148;39.604;2023-03-03T08:38:32;101359.28;;;10.19;48.94
52032;BME280;38044;45.148;39.604;2023-03-03T08:40:59;101262.31;;;9.54;49.36
52032;BME280;38044;45.148;39.604;2023-03-03T08:43:25;101330.28;;;10.10;49.39
52032;BME280;38044;45.148;39.604;2023-03-03T08:45:53;101352.88;;;10.25;48.95
52032;BME280;38044;45.148;39.604;2023-03-03T08:48:21;101235.72;;;9.37;49.14
52032;BME280;38044;45.148;39.604;2023-03-03T08:50:46;101351.78;;;10.21;49.70
52032;BME280;38044;45.148;39.604;2023-03-03T08:53:15;101346.94;;;10.33;49.42
52032;BME280;38044;45.148;39.604;2023-03-03T08:55:41;101347.75;;;10.54;48.71
52032;BME280;38044;45.148;39.604;2023-03-03T08:58:07;101292.16;;;10.39;48.68
52032;BME280;38044;45.148;39.604;2023-03-03T09:00:33;101246.41;;;10.49;48.31
52032;BME280;38044;45.148;39.604;2023-03-03T09:02:59;101320.97;;;11.14;47.59
52032;BME280;38044;45.148;39.604;2023-03-03T09:05:26;101322.34;;;11.06;47.80
52032;BME280;38044;45.148;39.604;2023-03-03T09:07:52;101306.28;;;11.45;47.63
52032;BME280;38044;45.148;39.604;2023-03-03T09:10:24;101298.44;;;11.93;46.81
52032;BME280;38044;45.148;39.604;2023-03-03T09:12:54;101242.69;;;11.84;46.00
52032;BME280;38044;45.148;39.604;2023-03-03T09:15:28;101264.16;;;12.28;46.03
52032;BME280;38044;45.148;39.604;2023-03-03T09:17:58;101281.75;;;12.74;45.33
52032;BME280;38044;45.148;39.604;2023-03-03T09:20:37;101173.19;;;12.39;44.79
52032;BME280;38044;45.148;39.604;2023-03-03T09:23:30;101271.13;;;13.63;44.77
52032;BME280;38044;45.148;39.604;2023-03-03T09:28:38;101249.69;;;14.32;42.93
52032;BME280;38044;45.148;39.604;2023-03-03T09:31:21;101278.50;;;14.23;43.17
52032;BME280;38044;45.148;39.604;2023-03-03T09:33:48;101158.47;;;13.64;42.98
52032;BME280;38044;45.148;39.604;2023-03-03T09:36:25;101216.84;;;14.53;42.55
52032;BME280;38044;45.148;39.604;2023-03-03T09:38:53;101244.19;;;15.29;41.94
52032;BME280;38044;45.148;39.604;2023-03-03T09:44:42;101229.91;;;16.84;40.34
52032;BME280;38044;45.148;39.604;2023-03-03T09:47:33;101219.94;;;16.14;40.57
52032;BME280;38044;45.148;39.604;2023-03-03T09:50:18;101217.50;;;15.81;40.63
52032;BME280;38044;45.148;39.604;2023-03-03T09:55:58;101206.66;;;15.81;41.58
52032;BME280;38044;45.148;39.604;2023-03-03T10:06:53;101186.09;;;16.69;41.03
52032;BME280;38044;45.148;39.604;2023-03-03T10:09:45;101174.97;;;17.14;41.13
52032;BME280;38044;45.148;39.604;2023-03-03T10:12:29;101145.72;;;17.02;40.21
52032;BME280;38044;45.148;39.604;2023-03-03T10:17:51;101115.72;;;16.89;40.78
52032;BME280;38044;45.148;39.604;2023-03-03T10:20:43;101118.06;;;17.43;40.92
52032;BME280;38044;45.148;39.604;2023-03-03T10:23:23;101109.06;;;17.60;39.39
52032;BME280;38044;45.148;39.604;2023-03-03T10:26:04;101128.19;;;17.72;39.84
52032;BME280;38044;45.148;39.604;2023-03-03T10:40:02;101104.22;;;16.01;42.39
52032;BME280;38044;45.148;39.604;2023-03-03T10:43:12;101104.69;;;16.03;42.82
52032;BME280;38044;45.148;39.604;2023-03-03T10:48:24;101101.34;;;15.12;43.67
52032;BME280;38044;45.148;39.604;2023-03-03T10:56:53;101003.94;;;14.53;44.61
52032;BME280;38044;45.148;39.604;2023-03-03T11:08:14;101074.31;;;14.76;44.92
52032;BME280;38044;45.148;39.604;2023-03-03T11:10:58;101002.03;;;14.17;45.32
52032;BME280;38044;45.148;39.604;2023-03-03T11:19:35;101071.59;;;14.26;45.82
52032;BME280;38044;45.148;39.604;2023-03-03T11:30:34;100914.56;;;13.36;45.99
52032;BME280;38044;45.148;39.604;2023-03-03T11:37:00;101052.56;;;14.31;46.53
52032;BME280;38044;45.148;39.604;2023-03-03T11:39:20;100911.97;;;13.31;46.66
52032;BME280;38044;45.148;39.604;2023-03-03T11:44:32;100946.56;;;13.28;47.66
52032;BME280;38044;45.148;39.604;2023-03-03T11:47:21;101037.09;;;13.95;47.17
52032;BME280;38044;45.148;39.604;2023-03-03T11:55:03;101004.28;;;13.60;48.18
52032;BME280;38044;45.148;39.604;2023-03-03T11:57:56;101028.97;;;13.95;47.89
52032;BME280;38044;45.148;39.604;2023-03-03T12:08:36;101001.44;;;13.93;47.06
52032;BME280;38044;45.148;39.604;2023-03-03T12:11:17;100905.44;;;13.18;47.34
52032;BME280;38044;45.148;39.604;2023-03-03T12:14:01;101001.59;;;13.88;47.79
52032;BME280;38044;45.148;39.604;2023-03-03T12:16:54;101000.47;;;13.89;47.50
52032;BME280;38044;45.148;39.604;2023-03-03T12:22:33;100991.84;;;13.87;47.34
52032;BME280;38044;45.148;39.604;2023-03-03T12:25:21;100989.56;;;13.80;47.17
52032;BME280;38044;45.148;39.604;2023-03-03T12:38:48;100898.91;;;12.45;48.11
52032;BME280;38044;45.148;39.604;2023-03-03T12:41:21;100936.22;;;12.56;49.13
52032;BME280;38044;45.148;39.604;2023-03-03T12:46:58;100967.84;;;12.83;48.66
52032;BME280;38044;45.148;39.604;2023-03-03T12:49:30;100841.44;;;11.98;49.29
52032;BME280;38044;45.148;39.604;2023-03-03T12:57:34;100919.81;;;12.53;48.92
52032;BME280;38044;45.148;39.604;2023-03-03T13:00:15;100952.13;;;12.72;48.67
52032;BME280;38044;45.148;39.604;2023-03-03T13:03:08;100943.06;;;12.81;48.58
52032;BME280;38044;45.148;39.604;2023-03-03T13:05:44;100894.78;;;12.33;48.66
52032;BME280;38044;45.148;39.604;2023-03-03T13:11:18;100816.09;;;11.99;48.98
52032;BME280;38044;45.148;39.604;2023-03-03T13:16:43;100798.19;;;11.89;48.70
52032;BME280;38044;45.148;39.604;2023-03-03T13:19:43;100922.50;;;12.85;48.44
52032;BME280;38044;45.148;39.604;2023-03-03T13:24:58;100932.63;;;12.61;48.71
52032;BME280;38044;45.148;39.604;2023-03-03T13:27:32;100824.16;;;11.99;48.96
52032;BME280;38044;45.148;39.604;2023-03-03T13:30:16;100791.13;;;11.74;48.92
52032;BME280;38044;45.148;39.604;2023-03-03T13:35:31;100925.38;;;12.43;48.65
52032;BME280;38044;45.148;39.604;2023-03-03T13:37:58;100911.91;;;12.24;49.11
52032;BME280;38044;45.148;39.604;2023-03-03T13:46:41;100917.69;;;12.17;49.50
52032;BME280;38044;45.148;39.604;2023-03-03T13:52:08;100795.31;;;11.04;51.03
52032;BME280;38044;45.148;39.604;2023-03-03T14:07:29;100909.56;;;11.36;52.03
52032;BME280;38044;45.148;39.604;2023-03-03T14:10:08;100783.06;;;10.45;52.30
52032;BME280;38044;45.148;39.604;2023-03-03T14:15:35;100887.59;;;11.05;52.68
52032;BME280;38044;45.148;39.604;2023-03-03T14:21:16;100922.47;;;11.39;52.05
52032;BME280;38044;45.148;39.604;2023-03-03T14:26:27;100918.94;;;11.15;52.37
52032;BME280;38044;45.148;39.604;2023-03-03T14:29:20;100917.13;;;11.34;52.64
52032;BME280;38044;45.148;39.604;2023-03-03T14:31:47;100915.63;;;11.23;52.33
52032;BME280;38044;45.148;39.604;2023-03-03T14:34:27;100909.72;;;11.21;52.54
52032;BME280;38044;45.148;39.604;2023-03-03T14:37:07;100920.97;;;11.28;52.76
52032;BME280;38044;45.148;39.604;2023-03-03T14:39:44;100790.19;;;10.31;52.57
52032;BME280;38044;45.148;39.604;2023-03-03T14:42:29;100928.69;;;11.11;53.11
52032;BME280;38044;45.148;39.604;2023-03-03T14:44:56;100884.81;;;10.86;53.21
52032;BME280;38044;45.148;39.604;2023-03-03T14:47:27;100795.56;;;10.31;53.67
52032;BME280;38044;45.148;39.604;2023-03-03T14:49:55;100884.09;;;10.75;53.52
52032;BME280;38044;45.148;39.604;2023-03-03T14:52:29;100888.69;;;10.75;54.05
52032;BME280;38044;45.148;39.604;2023-03-03T14:54:59;100888.28;;;10.63;54.32
52032;BME280;38044;45.148;39.604;2023-03-03T15:03:02;100848.94;;;10.43;54.82
52032;BME280;38044;45.148;39.604;2023-03-03T15:05:33;100904.06;;;10.69;55.07
52032;BME280;38044;45.148;39.604;2023-03-03T15:10:44;100908.69;;;10.64;55.38
52032;BME280;38044;45.148;39.604;2023-03-03T15:13:32;100905.81;;;10.55;55.77
52032;BME280;38044;45.148;39.604;2023-03-03T15:18:24;100909.53;;;10.25;56.19
52032;BME280;38044;45.148;39.604;2023-03-03T15:21:11;100906.84;;;10.25;56.58
52032;BME280;38044;45.148;39.604;2023-03-03T15:23:48;100872.13;;;9.89;56.25
52032;BME280;38044;45.148;39.604;2023-03-03T15:26:29;100905.31;;;10.08;56.58
52032;BME280;38044;45.148;39.604;2023-03-03T15:29:21;100896.75;;;10.01;57.15
52032;BME280;38044;45.148;39.604;2023-03-03T15:34:36;100798.97;;;9.23;57.29
52032;BME280;38044;45.148;39.604;2023-03-03T15:37:31;100869.53;;;9.79;57.59
52032;BME280;38044;45.148;39.604;2023-03-03T15:50:52;100903.56;;;9.88;57.81
52032;BME280;38044;45.148;39.604;2023-03-03T16:04:24;100890.41;;;9.87;58.10
52032;BME280;38044;45.148;39.604;2023-03-03T16:07:29;100871.91;;;9.85;58.65
52032;BME280;38044;45.148;39.604;2023-03-03T16:10:14;100898.69;;;9.96;58.42
52032;BME280;38044;45.148;39.604;2023-03-03T16:13:04;100888.13;;;10.09;57.74
52032;BME280;38044;45.148;39.604;2023-03-03T16:26:55;100895.72;;;9.97;58.71
52032;BME280;38044;45.148;39.604;2023-03-03T16:38:13;100775.13;;;9.22;58.39
52032;BME280;38044;45.148;39.604;2023-03-03T16:40:56;100884.00;;;9.83;58.47
52032;BME280;38044;45.148;39.604;2023-03-03T16:43:42;100867.38;;;9.76;58.21
52032;BME280;38044;45.148;39.604;2023-03-03T16:46:33;100880.72;;;9.91;57.96
52032;BME280;38044;45.148;39.604;2023-03-03T16:49:15;100736.91;;;8.96;58.13
52032;BME280;38044;45.148;39.604;2023-03-03T16:52:11;100889.84;;;9.90;58.62
52032;BME280;38044;45.148;39.604;2023-03-03T16:54:52;100866.03;;;9.78;58.44
52032;BME280;38044;45.148;39.604;2023-03-03T17:00:28;100898.31;;;10.12;57.56
52032;BME280;38044;45.148;39.604;2023-03-03T17:06:05;100768.06;;;9.36;56.98
52032;BME280;38044;45.148;39.604;2023-03-03T17:09:08;100897.50;;;10.12;57.82
52032;BME280;38044;45.148;39.604;2023-03-03T17:11:59;100892.13;;;10.12;57.90
52032;BME280;38044;45.148;39.604;2023-03-03T17:19:51;100859.81;;;9.88;57.33
52032;BME280;38044;45.148;39.604;2023-03-03T17:23:01;100894.22;;;10.20;57.40